sensor_id;sensor_type;location;lat;lon;timestamp;P1;durP1;ratioP1;P2;durP2;ratioP2
15476;SDS011;7840;42.702;23.296;2023-05-06T00:01:55;27.10;;;19.30;;
15476;SDS011;7840;42.702;23.296;2023-05-06T00:04:22;19.20;;;14.70;;
15476;SDS011;7840;42.702;23.296;2023-05-06T00:06:51;15.00;;;13.50;;
15476;SDS011;7840;42.702;23.296;2023-05-06T00:09:18;18.17;;;14.23;;
15476;SDS011;7840;42.702;23.296;2023-05-06T00:11:48;14.53;;;13.03;;
15476;SDS011;7840;42.702;23.296;2023-05-06T00:14:15;13.70;;;12.30;;
15476;SDS011;7840;42.702;23.296;2023-05-06T00:16:43;14.40;;;12.87;;
15476;SDS011;7840;42.702;23.296;2023-05-06T00:19:12;16.87;;;13.50;;
15476;SDS011;7840;42.702;23.296;2023-05-06T00:21:39;15.23;;;13.67;;
15476;SDS011;7840;42.702;23.296;2023-05-06T00:24:06;13.37;;;12.07;;
15476;SDS011;7840;42.702;23.296;2023-05-06T00:26:34;15.67;;;13.87;;
15476;SDS011;7840;42.702;23.296;2023-05-06T00:29:01;15.17;;;13.57;;
15476;SDS011;7840;42.702;23.296;2023-05-06T00:31:28;18.20;;;13.53;;
15476;SDS011;7840;42.702;23.296;2023-05-06T00:33:56;15.10;;;13.50;;
15476;SDS011;7840;42.702;23.296;2023-05-06T00:36:24;16.07;;;14.20;;
15476;SDS011;7840;42.702;23.296;2023-05-06T00:38:52;13.70;;;12.40;;
15476;SDS011;7840;42.702;23.296;2023-05-06T00:41:20;16.80;;;13.40;;
15476;SDS011;7840;42.702;23.296;2023-05-06T00:43:47;17.87;;;13.67;;
15476;SDS011;7840;42.702;23.296;2023-05-06T00:46:14;17.63;;;14.23;;
15476;SDS011;7840;42.702;23.296;2023-05-06T00:48:42;15.20;;;13.63;;
15476;SDS011;7840;42.702;23.296;2023-05-06T00:51:10;15.13;;;13.53;;
15476;SDS011;7840;42.702;23.296;2023-05-06T00:53:39;15.23;;;13.70;;
15476;SDS011;7840;42.702;23.296;2023-05-06T00:56:06;17.50;;;14.63;;
15476;SDS011;7840;42.702;23.296;2023-05-06T00:58:34;15.03;;;13.57;;
15476;SDS011;7840;42.702;23.296;2023-05-06T01:01:02;15.37;;;13.63;;
15476;SDS011;7840;42.702;23.296;2023-05-06T01:03:29;17.50;;;15.43;;
15476;SDS011;7840;42.702;23.296;2023-05-06T01:05:59;16.67;;;14.40;;
15476;SDS011;7840;42.702;23.296;2023-05-06T01:08:31;17.83;;;15.93;;
15476;SDS011;7840;42.702;23.296;2023-05-06T01:11:04;14.93;;;13.43;;
15476;SDS011;7840;42.702;23.296;2023-05-06T01:13:34;20.03;;;17.47;;
15476;SDS011;7840;42.702;23.296;2023-05-06T01:16:05;22.13;;;17.13;;
15476;SDS011;7840;42.702;23.296;2023-05-06T01:18:32;16.57;;;14.80;;
15476;SDS011;7840;42.702;23.296;2023-05-06T01:21:00;18.37;;;16.33;;
15476;SDS011;7840;42.702;23.296;2023-05-06T01:26:14;24.07;;;17.13;;
15476;SDS011;7840;42.702;23.296;2023-05-06T01:28:41;22.07;;;17.87;;
15476;SDS011;7840;42.702;23.296;2023-05-06T01:31:10;19.90;;;16.97;;
15476;SDS011;7840;42.702;23.296;2023-05-06T01:33:40;20.83;;;17.53;;
15476;SDS011;7840;42.702;23.296;2023-05-06T01:36:11;19.83;;;16.13;;
15476;SDS011;7840;42.702;23.296;2023-05-06T01:38:41;23.23;;;18.57;;
15476;SDS011;7840;42.702;23.296;2023-05-06T01:41:09;20.80;;;17.23;;
15476;SDS011;7840;42.702;23.296;2023-05-06T01:43:42;19.07;;;16.03;;
15476;SDS011;7840;42.702;23.296;2023-05-06T01:46:10;18.07;;;15.20;;
15476;SDS011;7840;42.702;23.296;2023-05-06T01:48:39;16.27;;;14.53;;
15476;SDS011;7840;42.702;23.296;2023-05-06T01:51:07;18.47;;;14.70;;
15476;SDS011;7840;42.702;23.296;2023-05-06T01:53:34;19.57;;;15.90;;
15476;SDS011;7840;42.702;23.296;2023-05-06T01:56:02;18.47;;;16.57;;
15476;SDS011;7840;42.702;23.296;2023-05-06T01:58:29;23.47;;;16.57;;
15476;SDS011;7840;42.702;23.296;2023-05-06T02:00:58;26.23;;;19.70;;
15476;SDS011;7840;42.702;23.296;2023-05-06T02:03:25;24.67;;;19.57;;
15476;SDS011;7840;42.702;23.296;2023-05-06T02:05:52;23.77;;;18.87;;
15476;SDS011;7840;42.702;23.296;2023-05-06T02:08:19;25.33;;;20.53;;
15476;SDS011;7840;42.702;23.296;2023-05-06T02:10:47;23.93;;;19.60;;
15476;SDS011;7840;42.702;23.296;2023-05-06T02:13:16;22.70;;;18.43;;
15476;SDS011;7840;42.702;23.296;2023-05-06T02:15:44;21.23;;;18.63;;
15476;SDS011;7840;42.702;23.296;2023-05-06T02:18:12;25.93;;;19.53;;
15476;SDS011;7840;42.702;23.296;2023-05-06T02:20:39;20.57;;;18.43;;
15476;SDS011;7840;42.702;23.296;2023-05-06T02:23:07;27.23;;;18.17;;
15476;SDS011;7840;42.702;23.296;2023-05-06T02:25:34;21.27;;;18.23;;
15476;SDS011;7840;42.702;23.296;2023-05-06T02:28:01;23.93;;;18.60;;
15476;SDS011;7840;42.702;23.296;2023-05-06T02:30:29;23.33;;;19.17;;
15476;SDS011;7840;42.702;23.296;2023-05-06T02:32:56;25.47;;;20.40;;
15476;SDS011;7840;42.702;23.296;2023-05-06T02:35:25;23.70;;;21.10;;
15476;SDS011;7840;42.702;23.296;2023-05-06T02:37:52;24.70;;;20.00;;
15476;SDS011;7840;42.702;23.296;2023-05-06T02:40:19;23.43;;;19.73;;
15476;SDS011;7840;42.702;23.296;2023-05-06T02:42:50;25.80;;;19.13;;
15476;SDS011;7840;42.702;23.296;2023-05-06T02:45:17;21.70;;;18.30;;
15476;SDS011;7840;42.702;23.296;2023-05-06T02:47:44;20.50;;;15.97;;
15476;SDS011;7840;42.702;23.296;2023-05-06T02:50:12;19.63;;;15.03;;
15476;SDS011;7840;42.702;23.296;2023-05-06T02:52:43;17.23;;;14.77;;
15476;SDS011;7840;42.702;23.296;2023-05-06T02:55:10;17.20;;;15.40;;
15476;SDS011;7840;42.702;23.296;2023-05-06T02:57:37;16.60;;;14.80;;
15476;SDS011;7840;42.702;23.296;2023-05-06T03:00:05;17.03;;;15.13;;
15476;SDS011;7840;42.702;23.296;2023-05-06T03:02:35;14.53;;;13.03;;
15476;SDS011;7840;42.702;23.296;2023-05-06T03:05:02;17.53;;;14.27;;
15476;SDS011;7840;42.702;23.296;2023-05-06T03:10:25;15.93;;;12.93;;
15476;SDS011;7840;42.702;23.296;2023-05-06T03:12:55;16.43;;;14.43;;
15476;SDS011;7840;42.702;23.296;2023-05-06T03:15:22;18.07;;;13.17;;
15476;SDS011;7840;42.702;23.296;2023-05-06T03:17:50;13.57;;;12.20;;
15476;SDS011;7840;42.702;23.296;2023-05-06T03:20:17;13.83;;;12.00;;
15476;SDS011;7840;42.702;23.296;2023-05-06T03:22:44;21.23;;;17.07;;
15476;SDS011;7840;42.702;23.296;2023-05-06T03:25:12;19.83;;;16.30;;
15476;SDS011;7840;42.702;23.296;2023-05-06T03:27:40;22.90;;;17.50;;
15476;SDS011;7840;42.702;23.296;2023-05-06T03:30:10;17.83;;;15.00;;
15476;SDS011;7840;42.702;23.296;2023-05-06T03:32:38;18.97;;;14.47;;
15476;SDS011;7840;42.702;23.296;2023-05-06T03:35:05;21.70;;;16.30;;
15476;SDS011;7840;42.702;23.296;2023-05-06T03:37:33;23.97;;;18.93;;
15476;SDS011;7840;42.702;23.296;2023-05-06T03:40:00;26.73;;;18.60;;
15476;SDS011;7840;42.702;23.296;2023-05-06T03:42:28;22.33;;;17.07;;
15476;SDS011;7840;42.702;23.296;2023-05-06T03:44:57;24.13;;;18.60;;
15476;SDS011;7840;42.702;23.296;2023-05-06T03:47:24;23.93;;;17.67;;
15476;SDS011;7840;42.702;23.296;2023-05-06T03:49:52;26.53;;;19.87;;
15476;SDS011;7840;42.702;23.296;2023-05-06T03:52:19;26.17;;;20.73;;
15476;SDS011;7840;42.702;23.296;2023-05-06T03:54:46;27.20;;;19.47;;
15476;SDS011;7840;42.702;23.296;2023-05-06T03:57:13;24.17;;;19.97;;
15476;SDS011;7840;42.702;23.296;2023-05-06T03:59:41;26.20;;;19.30;;
15476;SDS011;7840;42.702;23.296;2023-05-06T04:02:09;23.03;;;18.43;;
15476;SDS011;7840;42.702;23.296;2023-05-06T04:04:37;23.07;;;18.37;;
15476;SDS011;7840;42.702;23.296;2023-05-06T04:07:05;21.13;;;18.17;;
15476;SDS011;7840;42.702;23.296;2023-05-06T04:10:05;21.93;;;17.20;;
15476;SDS011;7840;42.702;23.296;2023-05-06T04:12:32;21.47;;;17.23;;
15476;SDS011;7840;42.702;23.296;2023-05-06T04:14:59;20.37;;;17.63;;
15476;SDS011;7840;42.702;23.296;2023-05-06T04:17:28;22.13;;;17.57;;
15476;SDS011;7840;42.702;23.296;2023-05-06T04:19:55;21.47;;;17.70;;
15476;SDS011;7840;42.702;23.296;2023-05-06T04:22:23;19.50;;;14.93;;
15476;SDS011;7840;42.702;23.296;2023-05-06T04:24:50;18.40;;;16.40;;
15476;SDS011;7840;42.702;23.296;2023-05-06T04:27:17;16.80;;;14.70;;
15476;SDS011;7840;42.702;23.296;2023-05-06T04:29:45;17.93;;;14.67;;
15476;SDS011;7840;42.702;23.296;2023-05-06T04:32:15;14.40;;;12.90;;
15476;SDS011;7840;42.702;23.296;2023-05-06T04:34:43;15.00;;;12.87;;
15476;SDS011;7840;42.702;23.296;2023-05-06T04:37:11;14.63;;;12.90;;
15476;SDS011;7840;42.702;23.296;2023-05-06T04:39:39;13.40;;;12.10;;
15476;SDS011;7840;42.702;23.296;2023-05-06T04:42:11;14.47;;;13.07;;
15476;SDS011;7840;42.702;23.296;2023-05-06T04:44:38;14.20;;;12.77;;
15476;SDS011;7840;42.702;23.296;2023-05-06T04:47:06;17.37;;;13.27;;
15476;SDS011;7840;42.702;23.296;2023-05-06T04:49:33;17.83;;;13.07;;
15476;SDS011;7840;42.702;23.296;2023-05-06T04:52:02;13.63;;;12.33;;
15476;SDS011;7840;42.702;23.296;2023-05-06T04:54:30;13.70;;;12.40;;
15476;SDS011;7840;42.702;23.296;2023-05-06T04:56:57;13.47;;;12.07;;
15476;SDS011;7840;42.702;23.296;2023-05-06T04:59:25;13.47;;;12.13;;
15476;SDS011;7840;42.702;23.296;2023-05-06T05:01:52;13.50;;;12.10;;
15476;SDS011;7840;42.702;23.296;2023-05-06T05:04:19;14.43;;;11.77;;
15476;SDS011;7840;42.702;23.296;2023-05-06T05:06:46;12.45;;;11.15;;
15476;SDS011;7840;42.702;23.296;2023-05-06T05:09:15;13.13;;;11.73;;
15476;SDS011;7840;42.702;23.296;2023-05-06T05:11:42;11.73;;;10.38;;
15476;SDS011;7840;42.702;23.296;2023-05-06T05:14:10;11.40;;;10.40;;
15476;SDS011;7840;42.702;23.296;2023-05-06T05:16:37;11.93;;;10.53;;
15476;SDS011;7840;42.702;23.296;2023-05-06T05:19:04;13.32;;;9.45;;
15476;SDS011;7840;42.702;23.296;2023-05-06T05:21:32;10.68;;;9.60;;
15476;SDS011;7840;42.702;23.296;2023-05-06T05:23:59;10.70;;;9.20;;
15476;SDS011;7840;42.702;23.296;2023-05-06T05:26:28;12.25;;;10.07;;
15476;SDS011;7840;42.702;23.296;2023-05-06T05:28:55;9.57;;;8.57;;
15476;SDS011;7840;42.702;23.296;2023-05-06T05:31:22;15.43;;;8.93;;
15476;SDS011;7840;42.702;23.296;2023-05-06T05:33:49;11.50;;;10.45;;
15476;SDS011;7840;42.702;23.296;2023-05-06T05:36:17;11.10;;;9.82;;
15476;SDS011;7840;42.702;23.296;2023-05-06T05:38:45;12.40;;;9.80;;
15476;SDS011;7840;42.702;23.296;2023-05-06T05:41:14;14.90;;;9.77;;
15476;SDS011;7840;42.702;23.296;2023-05-06T05:43:42;9.88;;;8.93;;
15476;SDS011;7840;42.702;23.296;2023-05-06T05:46:10;12.75;;;9.35;;
15476;SDS011;7840;42.702;23.296;2023-05-06T05:48:37;10.55;;;9.52;;
15476;SDS011;7840;42.702;23.296;2023-05-06T05:51:04;11.02;;;9.93;;
15476;SDS011;7840;42.702;23.296;2023-05-06T05:53:32;11.57;;;9.82;;
15476;SDS011;7840;42.702;23.296;2023-05-06T05:55:59;11.60;;;10.35;;
15476;SDS011;7840;42.702;23.296;2023-05-06T05:58:26;12.90;;;10.57;;
15476;SDS011;7840;42.702;23.296;2023-05-06T06:00:55;14.65;;;10.45;;
15476;SDS011;7840;42.702;23.296;2023-05-06T06:03:22;11.38;;;10.30;;
15476;SDS011;7840;42.702;23.296;2023-05-06T06:05:50;14.02;;;11.25;;
15476;SDS011;7840;42.702;23.296;2023-05-06T06:08:19;12.57;;;11.27;;
15476;SDS011;7840;42.702;23.296;2023-05-06T06:10:46;13.05;;;9.60;;
15476;SDS011;7840;42.702;23.296;2023-05-06T06:13:13;12.63;;;10.32;;
15476;SDS011;7840;42.702;23.296;2023-05-06T06:15:41;11.98;;;9.60;;
15476;SDS011;7840;42.702;23.296;2023-05-06T06:18:09;10.10;;;9.18;;
15476;SDS011;7840;42.702;23.296;2023-05-06T06:20:37;16.17;;;9.77;;
15476;SDS011;7840;42.702;23.296;2023-05-06T06:23:04;10.95;;;9.45;;
15476;SDS011;7840;42.702;23.296;2023-05-06T06:25:31;12.98;;;8.48;;
15476;SDS011;7840;42.702;23.296;2023-05-06T06:27:58;11.80;;;8.50;;
15476;SDS011;7840;42.702;23.296;2023-05-06T06:30:26;9.32;;;8.27;;
15476;SDS011;7840;42.702;23.296;2023-05-06T06:32:53;10.52;;;9.18;;
15476;SDS011;7840;42.702;23.296;2023-05-06T06:35:22;14.65;;;9.07;;
15476;SDS011;7840;42.702;23.296;2023-05-06T06:37:50;9.55;;;8.35;;
15476;SDS011;7840;42.702;23.296;2023-05-06T06:40:18;9.40;;;8.50;;
15476;SDS011;7840;42.702;23.296;2023-05-06T06:42:45;10.77;;;7.28;;
15476;SDS011;7840;42.702;23.296;2023-05-06T06:45:13;8.60;;;7.75;;
15476;SDS011;7840;42.702;23.296;2023-05-06T06:47:40;11.50;;;8.20;;
15476;SDS011;7840;42.702;23.296;2023-05-06T06:50:08;8.88;;;8.00;;
15476;SDS011;7840;42.702;23.296;2023-05-06T06:52:37;13.80;;;8.48;;
15476;SDS011;7840;42.702;23.296;2023-05-06T06:55:04;15.43;;;8.63;;
15476;SDS011;7840;42.702;23.296;2023-05-06T06:57:32;10.63;;;8.52;;
15476;SDS011;7840;42.702;23.296;2023-05-06T06:59:59;9.10;;;8.20;;
15476;SDS011;7840;42.702;23.296;2023-05-06T07:02:26;13.93;;;8.98;;
15476;SDS011;7840;42.702;23.296;2023-05-06T07:04:54;11.13;;;9.35;;
15476;SDS011;7840;42.702;23.296;2023-05-06T07:07:21;11.00;;;9.90;;
15476;SDS011;7840;42.702;23.296;2023-05-06T07:09:50;17.85;;;10.43;;
15476;SDS011;7840;42.702;23.296;2023-05-06T07:12:17;10.45;;;9.35;;
15476;SDS011;7840;42.702;23.296;2023-05-06T07:14:44;10.15;;;9.15;;
15476;SDS011;7840;42.702;23.296;2023-05-06T07:17:12;9.63;;;8.63;;
15476;SDS011;7840;42.702;23.296;2023-05-06T07:19:39;8.82;;;8.02;;
15476;SDS011;7840;42.702;23.296;2023-05-06T07:22:06;8.95;;;8.18;;
15476;SDS011;7840;42.702;23.296;2023-05-06T07:24:33;8.48;;;7.65;;
15476;SDS011;7840;42.702;23.296;2023-05-06T07:27:02;10.88;;;8.82;;
15476;SDS011;7840;42.702;23.296;2023-05-06T07:29:29;10.65;;;9.20;;
15476;SDS011;7840;42.702;23.296;2023-05-06T07:31:56;8.75;;;7.85;;
15476;SDS011;7840;42.702;23.296;2023-05-06T07:34:24;9.52;;;7.65;;
15476;SDS011;7840;42.702;23.296;2023-05-06T07:36:51;8.90;;;7.40;;
15476;SDS011;7840;42.702;23.296;2023-05-06T07:39:18;8.23;;;7.38;;
15476;SDS011;7840;42.702;23.296;2023-05-06T07:41:46;12.75;;;7.53;;
15476;SDS011;7840;42.702;23.296;2023-05-06T07:44:15;6.60;;;6.00;;
15476;SDS011;7840;42.702;23.296;2023-05-06T07:46:42;7.30;;;6.70;;
15476;SDS011;7840;42.702;23.296;2023-05-06T07:49:09;9.50;;;6.43;;
15476;SDS011;7840;42.702;23.296;2023-05-06T07:51:36;7.28;;;6.35;;
15476;SDS011;7840;42.702;23.296;2023-05-06T07:54:04;6.78;;;6.05;;
15476;SDS011;7840;42.702;23.296;2023-05-06T07:56:31;6.05;;;5.55;;
15476;SDS011;7840;42.702;23.296;2023-05-06T07:58:58;7.18;;;5.88;;
15476;SDS011;7840;42.702;23.296;2023-05-06T08:01:27;6.63;;;6.03;;
15476;SDS011;7840;42.702;23.296;2023-05-06T08:03:54;6.10;;;5.20;;
15476;SDS011;7840;42.702;23.296;2023-05-06T08:06:22;6.65;;;5.53;;
15476;SDS011;7840;42.702;23.296;2023-05-06T08:08:49;6.47;;;5.93;;
15476;SDS011;7840;42.702;23.296;2023-05-06T08:11:16;7.15;;;6.05;;
15476;SDS011;7840;42.702;23.296;2023-05-06T08:13:43;7.28;;;6.28;;
15476;SDS011;7840;42.702;23.296;2023-05-06T08:16:11;5.88;;;5.25;;
15476;SDS011;7840;42.702;23.296;2023-05-06T08:18:39;5.78;;;5.28;;
15476;SDS011;7840;42.702;23.296;2023-05-06T08:21:07;9.40;;;5.75;;
15476;SDS011;7840;42.702;23.296;2023-05-06T08:23:34;6.30;;;4.88;;
15476;SDS011;7840;42.702;23.296;2023-05-06T08:26:01;5.20;;;4.70;;
15476;SDS011;7840;42.702;23.296;2023-05-06T08:28:28;5.20;;;4.70;;
15476;SDS011;7840;42.702;23.296;2023-05-06T08:30:56;7.28;;;5.45;;
15476;SDS011;7840;42.702;23.296;2023-05-06T08:33:23;7.97;;;4.78;;
15476;SDS011;7840;42.702;23.296;2023-05-06T08:35:52;5.32;;;4.10;;
15476;SDS011;7840;42.702;23.296;2023-05-06T08:38:21;6.63;;;4.95;;
15476;SDS011;7840;42.702;23.296;2023-05-06T08:40:49;4.95;;;4.40;;
15476;SDS011;7840;42.702;23.296;2023-05-06T08:43:18;7.43;;;5.05;;
15476;SDS011;7840;42.702;23.296;2023-05-06T08:45:46;5.22;;;4.72;;
15476;SDS011;7840;42.702;23.296;2023-05-06T08:48:13;6.03;;;4.55;;
15476;SDS011;7840;42.702;23.296;2023-05-06T08:50:41;6.20;;;4.63;;
15476;SDS011;7840;42.702;23.296;2023-05-06T08:53:10;5.15;;;4.68;;
15476;SDS011;7840;42.702;23.296;2023-05-06T08:55:39;4.60;;;4.18;;
15476;SDS011;7840;42.702;23.296;2023-05-06T08:58:07;4.85;;;4.40;;
15476;SDS011;7840;42.702;23.296;2023-05-06T09:00:37;5.18;;;4.78;;
15476;SDS011;7840;42.702;23.296;2023-05-06T09:03:05;4.93;;;4.30;;
15476;SDS011;7840;42.702;23.296;2023-05-06T09:05:32;5.15;;;4.32;;
15476;SDS011;7840;42.702;23.296;2023-05-06T09:08:02;5.32;;;4.82;;
15476;SDS011;7840;42.702;23.296;2023-05-06T09:10:31;6.18;;;4.95;;
15476;SDS011;7840;42.702;23.296;2023-05-06T09:12:59;5.28;;;4.80;;
15476;SDS011;7840;42.702;23.296;2023-05-06T09:15:26;7.15;;;4.10;;
15476;SDS011;7840;42.702;23.296;2023-05-06T09:18:04;7.15;;;4.70;;
15476;SDS011;7840;42.702;23.296;2023-05-06T09:20:32;6.75;;;4.75;;
15476;SDS011;7840;42.702;23.296;2023-05-06T09:23:00;4.50;;;4.10;;
15476;SDS011;7840;42.702;23.296;2023-05-06T09:25:27;5.50;;;4.55;;
15476;SDS011;7840;42.702;23.296;2023-05-06T09:28:03;5.30;;;3.97;;
15476;SDS011;7840;42.702;23.296;2023-05-06T09:30:30;6.35;;;4.10;;
15476;SDS011;7840;42.702;23.296;2023-05-06T09:33:04;5.47;;;4.03;;
15476;SDS011;7840;42.702;23.296;2023-05-06T09:35:35;5.35;;;4.13;;
15476;SDS011;7840;42.702;23.296;2023-05-06T09:38:03;4.25;;;3.85;;
15476;SDS011;7840;42.702;23.296;2023-05-06T09:40:30;4.00;;;3.70;;
15476;SDS011;7840;42.702;23.296;2023-05-06T09:42:58;6.57;;;4.32;;
15476;SDS011;7840;42.702;23.296;2023-05-06T09:45:26;9.80;;;4.05;;
15476;SDS011;7840;42.702;23.296;2023-05-06T09:47:54;7.43;;;4.30;;
15476;SDS011;7840;42.702;23.296;2023-05-06T09:50:22;5.43;;;4.50;;
15476;SDS011;7840;42.702;23.296;2023-05-06T09:52:50;4.85;;;4.38;;
15476;SDS011;7840;42.702;23.296;2023-05-06T09:55:18;5.32;;;4.82;;
15476;SDS011;7840;42.702;23.296;2023-05-06T09:57:45;6.95;;;4.70;;
15476;SDS011;7840;42.702;23.296;2023-05-06T10:00:16;10.05;;;6.22;;
15476;SDS011;7840;42.702;23.296;2023-05-06T10:02:46;6.25;;;5.28;;
15476;SDS011;7840;42.702;23.296;2023-05-06T10:05:14;7.40;;;5.75;;
15476;SDS011;7840;42.702;23.296;2023-05-06T10:07:42;8.55;;;4.78;;
15476;SDS011;7840;42.702;23.296;2023-05-06T10:10:09;5.72;;;5.18;;
15476;SDS011;7840;42.702;23.296;2023-05-06T10:12:37;7.20;;;4.43;;
15476;SDS011;7840;42.702;23.296;2023-05-06T10:15:05;6.60;;;4.50;;
15476;SDS011;7840;42.702;23.296;2023-05-06T10:17:33;5.20;;;4.70;;
15476;SDS011;7840;42.702;23.296;2023-05-06T10:20:02;5.05;;;4.65;;
15476;SDS011;7840;42.702;23.296;2023-05-06T10:22:33;5.60;;;4.68;;
15476;SDS011;7840;42.702;23.296;2023-05-06T10:25:03;8.48;;;4.40;;
15476;SDS011;7840;42.702;23.296;2023-05-06T10:27:32;7.00;;;4.20;;
15476;SDS011;7840;42.702;23.296;2023-05-06T10:30:01;5.22;;;4.75;;
15476;SDS011;7840;42.702;23.296;2023-05-06T10:32:30;6.38;;;4.55;;
15476;SDS011;7840;42.702;23.296;2023-05-06T10:34:59;5.05;;;4.55;;
15476;SDS011;7840;42.702;23.296;2023-05-06T10:37:31;6.78;;;4.60;;
15476;SDS011;7840;42.702;23.296;2023-05-06T10:40:00;4.63;;;4.18;;
15476;SDS011;7840;42.702;23.296;2023-05-06T10:42:31;5.35;;;4.20;;
15476;SDS011;7840;42.702;23.296;2023-05-06T10:44:59;6.10;;;4.90;;
15476;SDS011;7840;42.702;23.296;2023-05-06T10:47:27;7.63;;;4.28;;
15476;SDS011;7840;42.702;23.296;2023-05-06T10:52:51;5.55;;;3.85;;
15476;SDS011;7840;42.702;23.296;2023-05-06T10:55:26;4.90;;;4.00;;
15476;SDS011;7840;42.702;23.296;2023-05-06T10:57:53;6.47;;;3.63;;
15476;SDS011;7840;42.702;23.296;2023-05-06T11:00:22;3.88;;;3.47;;
15476;SDS011;7840;42.702;23.296;2023-05-06T11:02:53;5.70;;;3.40;;
15476;SDS011;7840;42.702;23.296;2023-05-06T11:05:21;5.70;;;3.55;;
15476;SDS011;7840;42.702;23.296;2023-05-06T11:07:48;5.03;;;3.60;;
15476;SDS011;7840;42.702;23.296;2023-05-06T11:10:29;6.20;;;3.95;;
15476;SDS011;7840;42.702;23.296;2023-05-06T11:12:57;6.28;;;3.58;;
15476;SDS011;7840;42.702;23.296;2023-05-06T11:15:36;3.38;;;2.97;;
15476;SDS011;7840;42.702;23.296;2023-05-06T11:20:50;5.75;;;3.20;;
15476;SDS011;7840;42.702;23.296;2023-05-06T11:23:17;5.70;;;2.90;;
15476;SDS011;7840;42.702;23.296;2023-05-06T11:25:46;4.75;;;3.05;;
15476;SDS011;7840;42.702;23.296;2023-05-06T11:28:14;3.60;;;3.00;;
15476;SDS011;7840;42.702;23.296;2023-05-06T11:30:42;3.47;;;2.88;;
15476;SDS011;7840;42.702;23.296;2023-05-06T11:33:12;4.82;;;2.97;;
15476;SDS011;7840;42.702;23.296;2023-05-06T11:35:41;9.15;;;3.05;;
15476;SDS011;7840;42.702;23.296;2023-05-06T11:38:08;6.00;;;2.90;;
15476;SDS011;7840;42.702;23.296;2023-05-06T11:40:40;4.22;;;3.10;;
15476;SDS011;7840;42.702;23.296;2023-05-06T11:43:12;5.68;;;3.17;;
15476;SDS011;7840;42.702;23.296;2023-05-06T11:45:40;4.60;;;3.13;;
15476;SDS011;7840;42.702;23.296;2023-05-06T11:48:09;3.78;;;2.63;;
15476;SDS011;7840;42.702;23.296;2023-05-06T11:50:37;8.70;;;3.00;;
15476;SDS011;7840;42.702;23.296;2023-05-06T11:53:04;4.18;;;2.90;;
15476;SDS011;7840;42.702;23.296;2023-05-06T11:55:31;3.20;;;2.70;;
15476;SDS011;7840;42.702;23.296;2023-05-06T11:57:59;2.70;;;2.50;;
15476;SDS011;7840;42.702;23.296;2023-05-06T12:00:27;5.13;;;2.72;;
15476;SDS011;7840;42.702;23.296;2023-05-06T12:02:55;3.47;;;2.60;;
15476;SDS011;7840;42.702;23.296;2023-05-06T12:05:22;4.25;;;2.47;;
15476;SDS011;7840;42.702;23.296;2023-05-06T12:07:49;4.10;;;3.10;;
15476;SDS011;7840;42.702;23.296;2023-05-06T12:10:17;4.18;;;2.70;;
15476;SDS011;7840;42.702;23.296;2023-05-06T12:12:44;4.93;;;2.97;;
15476;SDS011;7840;42.702;23.296;2023-05-06T12:15:12;4.30;;;2.90;;
15476;SDS011;7840;42.702;23.296;2023-05-06T12:17:40;4.45;;;2.83;;
15476;SDS011;7840;42.702;23.296;2023-05-06T12:20:09;3.60;;;3.10;;
15476;SDS011;7840;42.702;23.296;2023-05-06T12:22:36;5.05;;;2.95;;
15476;SDS011;7840;42.702;23.296;2023-05-06T12:25:14;4.82;;;3.33;;
15476;SDS011;7840;42.702;23.296;2023-05-06T12:27:41;3.53;;;3.10;;
15476;SDS011;7840;42.702;23.296;2023-05-06T12:30:09;3.95;;;3.03;;
15476;SDS011;7840;42.702;23.296;2023-05-06T12:35:30;6.78;;;3.15;;
15476;SDS011;7840;42.702;23.296;2023-05-06T12:38:06;3.63;;;3.33;;
15476;SDS011;7840;42.702;23.296;2023-05-06T12:40:33;4.15;;;3.00;;
15476;SDS011;7840;42.702;23.296;2023-05-06T12:43:01;3.08;;;2.65;;
15476;SDS011;7840;42.702;23.296;2023-05-06T12:45:28;7.95;;;3.20;;
15476;SDS011;7840;42.702;23.296;2023-05-06T12:47:56;4.55;;;2.58;;
15476;SDS011;7840;42.702;23.296;2023-05-06T12:50:32;3.10;;;2.45;;
15476;SDS011;7840;42.702;23.296;2023-05-06T12:53:00;4.45;;;3.10;;
15476;SDS011;7840;42.702;23.296;2023-05-06T12:55:28;5.45;;;2.95;;
15476;SDS011;7840;42.702;23.296;2023-05-06T12:57:56;7.43;;;3.58;;
15476;SDS011;7840;42.702;23.296;2023-05-06T13:00:23;3.33;;;3.03;;
15476;SDS011;7840;42.702;23.296;2023-05-06T13:02:50;4.32;;;3.45;;
15476;SDS011;7840;42.702;23.296;2023-05-06T13:05:18;6.97;;;4.53;;
15476;SDS011;7840;42.702;23.296;2023-05-06T13:07:46;5.45;;;3.67;;
15476;SDS011;7840;42.702;23.296;2023-05-06T13:10:15;5.82;;;4.00;;
15476;SDS011;7840;42.702;23.296;2023-05-06T13:12:42;6.20;;;3.33;;
15476;SDS011;7840;42.702;23.296;2023-05-06T13:15:10;3.58;;;3.10;;
15476;SDS011;7840;42.702;23.296;2023-05-06T13:17:37;4.70;;;2.85;;
15476;SDS011;7840;42.702;23.296;2023-05-06T13:20:05;3.53;;;2.70;;
15476;SDS011;7840;42.702;23.296;2023-05-06T13:22:33;4.55;;;3.05;;
15476;SDS011;7840;42.702;23.296;2023-05-06T13:25:02;3.30;;;3.00;;
15476;SDS011;7840;42.702;23.296;2023-05-06T13:27:29;4.68;;;3.03;;
15476;SDS011;7840;42.702;23.296;2023-05-06T13:29:56;3.25;;;2.63;;
15476;SDS011;7840;42.702;23.296;2023-05-06T13:32:24;3.47;;;3.10;;
15476;SDS011;7840;42.702;23.296;2023-05-06T13:34:51;4.03;;;2.70;;
15476;SDS011;7840;42.702;23.296;2023-05-06T13:37:18;3.75;;;3.17;;
15476;SDS011;7840;42.702;23.296;2023-05-06T13:39:46;4.38;;;3.15;;
15476;SDS011;7840;42.702;23.296;2023-05-06T13:42:14;3.35;;;3.03;;
15476;SDS011;7840;42.702;23.296;2023-05-06T13:44:42;7.47;;;3.60;;
15476;SDS011;7840;42.702;23.296;2023-05-06T13:47:09;4.28;;;3.10;;
15476;SDS011;7840;42.702;23.296;2023-05-06T13:49:39;5.82;;;3.35;;
15476;SDS011;7840;42.702;23.296;2023-05-06T13:52:06;3.50;;;3.17;;
15476;SDS011;7840;42.702;23.296;2023-05-06T13:54:34;8.60;;;3.30;;
15476;SDS011;7840;42.702;23.296;2023-05-06T13:57:01;4.05;;;2.80;;
15476;SDS011;7840;42.702;23.296;2023-05-06T13:59:30;3.88;;;2.83;;
15476;SDS011;7840;42.702;23.296;2023-05-06T14:01:57;4.90;;;3.40;;
15476;SDS011;7840;42.702;23.296;2023-05-06T14:04:25;3.17;;;2.88;;
15476;SDS011;7840;42.702;23.296;2023-05-06T14:06:52;7.10;;;3.20;;
15476;SDS011;7840;42.702;23.296;2023-05-06T14:09:20;5.70;;;3.00;;
15476;SDS011;7840;42.702;23.296;2023-05-06T14:14:17;6.15;;;2.78;;
15476;SDS011;7840;42.702;23.296;2023-05-06T14:16:45;3.63;;;2.78;;
15476;SDS011;7840;42.702;23.296;2023-05-06T14:19:13;4.88;;;3.30;;
15476;SDS011;7840;42.702;23.296;2023-05-06T14:21:40;3.47;;;3.10;;
15476;SDS011;7840;42.702;23.296;2023-05-06T14:24:07;3.42;;;2.80;;
15476;SDS011;7840;42.702;23.296;2023-05-06T14:26:36;3.55;;;2.95;;
15476;SDS011;7840;42.702;23.296;2023-05-06T14:29:04;8.23;;;3.72;;
15476;SDS011;7840;42.702;23.296;2023-05-06T14:31:32;3.25;;;2.83;;
15476;SDS011;7840;42.702;23.296;2023-05-06T14:34:01;8.25;;;3.05;;
15476;SDS011;7840;42.702;23.296;2023-05-06T14:36:28;4.22;;;2.90;;
15476;SDS011;7840;42.702;23.296;2023-05-06T14:38:55;5.80;;;2.78;;
15476;SDS011;7840;42.702;23.296;2023-05-06T14:41:23;3.00;;;2.70;;
15476;SDS011;7840;42.702;23.296;2023-05-06T14:43:50;4.03;;;2.80;;
15476;SDS011;7840;42.702;23.296;2023-05-06T14:46:17;5.05;;;3.17;;
15476;SDS011;7840;42.702;23.296;2023-05-06T14:48:45;5.68;;;3.03;;
15476;SDS011;7840;42.702;23.296;2023-05-06T14:51:13;2.70;;;2.50;;
15476;SDS011;7840;42.702;23.296;2023-05-06T14:53:41;4.25;;;2.63;;
15476;SDS011;7840;42.702;23.296;2023-05-06T14:56:08;8.35;;;2.50;;
15476;SDS011;7840;42.702;23.296;2023-05-06T14:58:36;4.65;;;2.70;;